< < Back
Terminal Aerodrome Forecast


Current Version              Previous Versions:   1  2  3  4  5  6  7  8  9  

Terminal Aerodrome Forecast

047
FTUS42 KCAE 232300
TAFCAE
TAF
KCAE 232320Z 2400/2424 23005KT P6SM VCSH SCT040 BKN100
     FM240200 VRB03KT P6SM SCT035 SCT120
     FM240900 VRB03KT P6SM SCT010 SCT150
     FM241300 25007KT P6SM SCT040 SCT250
     FM242000 26010G15KT P6SM VCSH SCT040 BKN100=



Latest METAR

484
SAUS80 KWBC 240400 CCA
MTRCAE
METAR KCAE 240356Z 17006KT 10SM SCT110 27/23 A2996 RMK AO2 SLP140
T02720228


USA.gov is the U.S. government's official web portal to all federal, state and local government web resources and services.